Stations météo

réclame
Mon MeteoGroup
Berlin/Tempelhof, Allemagne (10384): Température de l'air & dewpoint: 17.10.2018 07:00:00 - 23.10.2018 07:00:00 (CEST)Berlin/Tempelhof, Allemagne (10384): Température de l'air 5cm & Température de l'air -5cm: 17.10.2018 07:00:00 - 23.10.2018 07:00:00 (CEST)Berlin/Tempelhof, Allemagne (10384): Température de l'air -20cm & Température de l'air -100cm: 17.10.2018 07:00:00 - 23.10.2018 07:00:00 (CEST)Berlin/Tempelhof, Allemagne (10384): Vitesse du vent & gusts: 17.10.2018 07:00:00 - 23.10.2018 07:00:00 (CEST)Berlin/Tempelhof, Allemagne (10384): Direction du vent: 17.10.2018 07:00:00 - 23.10.2018 07:00:00 (CEST)Berlin/Tempelhof, Allemagne (10384): reduced air pressure: 17.10.2018 07:00:00 - 23.10.2018 07:00:00 (CEST)Berlin/Tempelhof, Allemagne (10384): Ensoleillement: 17.10.2018 07:00:00 - 23.10.2018 07:00:00 (CEST)Berlin/Tempelhof, Allemagne (10384): Quantités de précipitations: 17.10.2018 07:00:00 - 23.10.2018 07:00:00 (CEST)
Date & Time tt [°C] td [°C] tt 5cm [°C] tt -5cm [°C] tt -20cm [°C] tt -100cm [°C] ff [km/h] ff [knt] fx [km/h] fx [knt] dd ppp [hPa] sd [min] rr [mm]
23.10.2018 07:00:00 6,1 2,6 5,2 6,7 9,6 13,9 18 10 29 16 SW 1019,6 0 0,0
23.10.2018 06:00:00 5,4 2,5 4,2 6,6 9,7 13,9 14 8 27 15 SW 1021,5 0 0,0
23.10.2018 05:00:00 5,4 2,5 3,5 6,6 9,8 13,9 16 9 24 13 WSW 1023,2 0 0,0
23.10.2018 04:00:00 5,1 2,5 3,1 6,7 9,9 13,9 12 7 21 12 SW 1024,5 0 0,0
23.10.2018 03:00:00 5,5 2,7 3,2 6,8 10,1 13,9 11 6 18 10 WSW 1025,6 0 0,0
23.10.2018 02:00:00 5,7 2,7 3,4 7,0 10,2 13,9 11 6 19 10 WSW 1026,6 0 0,0
23.10.2018 01:00:00 6,1 2,7 4,1 7,2 10,4 13,9 12 7 22 12 W 1027,7 0 0,0
23.10.2018 00:00:00 6,3 2,5 3,7 7,5 10,5 13,9 10 5 18 10 W 1028,1 0 0,0
22.10.2018 23:00:00 6,6 2,7 3,7 7,7 10,7 13,9 11 6 16 8 WSW 1028,5 0 0,0
22.10.2018 22:00:00 6,9 3,0 3,5 8,1 10,9 13,9 9 5 11 6 W 1028,9 0 0,0
22.10.2018 21:00:00 7,9 4,0 4,0 8,6 11,0 13,9 8 4 16 9 W 1029,0 0 0,0
22.10.2018 20:00:00 8,3 3,0 4,5 9,3 11,1 14,0 14 8 24 13 NW 1029,1 0 0,0
22.10.2018 19:00:00 9,0 4,0 5,0 10,2 11,2 14,0 12 6 24 13 NW 1028,8 0 0,0
22.10.2018 18:00:00 10,6 4,7 7,8 11,1 11,1 14,0 15 8 24 13 NNW 1028,3 5 0,0
22.10.2018 17:00:00 10,8 5,2 8,6 11,9 11,0 14,0 15 8 30 16 NW 1027,7 26 0,0
22.10.2018 16:00:00 11,4 6,7 11,7 11,6 10,9 14,0 22 12 31 17 NNW 1027,5 32 0,0
22.10.2018 15:00:00 10,5 8,1 10,7 10,9 10,8 14,0 13 7 25 13 NNW 1027,3 0 0,2
22.10.2018 14:00:00 9,8 7,2 9,4 10,6 10,7 14,0 18 10 44 24 N 1027,3 0 0,5
22.10.2018 13:00:00 10,1 8,9 9,9 10,5 10,6 14,0 16 9 25 14 NW 1026,9 0 0,4
22.10.2018 12:00:00 10,2 9,0 10,3 10,3 10,5 14,0 16 9 25 13 WNW 1026,5 0 0,1
22.10.2018 11:00:00 10,2 5,7 12,0 9,8 10,5 14,0 8 4 13 7 WSW 1026,2 0 0,0
22.10.2018 10:00:00 9,0 4,8 10,0 9,3 10,5 14,0 8 4 14 8 SW 1026,1 0 0,0
22.10.2018 09:00:00 7,9 4,2 8,5 8,8 10,5 14,0 6 4 12 7 SSW 1025,8 0 0,0
22.10.2018 08:00:00 7,1 3,9 6,9 8,5 10,6 14,0 6 3 12 6 SW 1025,7 0 0,0
22.10.2018 07:00:00 6,6 3,6 6,0 8,1 10,7 14,0 7 4 11 6 SW 1025,5 0 0,0
22.10.2018 06:00:00 6,1 3,3 2,4 8,3 10,9 14,0 6 4 11 6 SSW 1025,6 0 0,0
22.10.2018 05:00:00 6,4 3,4 0,6 8,8 11,0 14,1 4 2 11 6 S 1025,7 0 0,0
22.10.2018 04:00:00 7,5 3,6 3,5 9,3 11,0 14,1 6 3 14 7 SSW 1026,0 0 0,0
22.10.2018 03:00:00 8,5 4,0 7,8 9,3 11,1 14,1 9 5 13 7 SSW 1026,5 0 0,0
22.10.2018 02:00:00 8,1 4,2 7,1 9,1 11,2 14,1 4 2 10 6 SSW 1026,9 0 0,0
22.10.2018 01:00:00 7,7 4,0 5,5 9,0 11,4 14,1 6 4 11 6 S 1027,2 0 0,0
22.10.2018 00:00:00 8,0 3,9 2,5 9,3 11,6 14,1 5 3 13 7 SSW 1027,5 0 0,0
21.10.2018 23:00:00 8,1 4,1 2,7 9,7 11,8 14,1 5 3 10 5 S 1027,5 0 0,0
21.10.2018 22:00:00 8,7 4,2 3,3 10,2 11,9 14,1 6 3 11 6 S 1027,7 0 0,0
21.10.2018 21:00:00 9,8 4,4 2,6 10,7 12,1 14,1 6 3 9 5 S 1027,6 0 0,0
21.10.2018 20:00:00 11,1 4,6 2,7 11,5 12,2 14,1 6 3 9 5 S 1027,7 0 0,0
21.10.2018 19:00:00 12,1 4,5 3,2 12,7 12,2 14,1 5 3 9 5 S 1027,8 0 0,0
21.10.2018 18:00:00 13,7 4,3 9,1 14,1 12,0 14,1 6 4 15 8 SSW 1027,6 21 0,0
21.10.2018 17:00:00 15,2 3,9 14,7 15,2 11,8 14,1 6 3 16 9 SW 1027,7 60 0,0
21.10.2018 16:00:00 15,6 4,4 17,9 15,1 11,4 14,1 10 5 16 8 SW 1028,1 60 0,0
21.10.2018 15:00:00 15,2 5,4 15,8 15,6 11,0 14,1 6 3 16 9 NW 1028,6 58 0,0
21.10.2018 14:00:00 14,5 5,1 19,3 14,3 10,6 14,1 8 4 16 9 W 1028,9 60 0,0
21.10.2018 13:00:00 14,3 5,8 19,0 12,2 10,3 14,2 7 4 14 8 S 1029,4 60 0,0
21.10.2018 12:00:00 13,1 6,9 16,7 9,3 10,3 14,2 7 4 13 7 SW 1029,9 60 0,0
21.10.2018 11:00:00 11,8 7,2 8,6 7,9 10,3 14,2 4 2 8 4 S 1030,0 60 0,0
21.10.2018 10:00:00 9,4 7,1 6,4 7,5 10,5 14,2 1 1 5 3 S 1030,0 60 0,0
21.10.2018 09:00:00 6,9 6,2 2,9 7,0 10,6 14,2 0 0 4 2 N 1029,6 43 0,0
21.10.2018 08:00:00 3,8 3,0 -0,8 7,1 10,8 14,2 5 3 11 6 NW 1029,1 0 0,0
21.10.2018 07:00:00 5,1 4,1 -0,7 7,4 11,0 14,2 2 1 9 5 N 1028,9 0 0,0
21.10.2018 06:00:00 5,2 4,2 -3,0 7,8 11,2 14,2 5 3 10 5 NW 1028,9 0 0,0
21.10.2018 05:00:00 5,8 4,4 -1,1 8,3 11,4 14,2 4 2 6 4 NNW 1028,5 0 0,0
21.10.2018 04:00:00 6,6 4,7 -1,6 8,8 11,6 14,2 4 2 13 7 WNW 1028,4 0 0,0
21.10.2018 03:00:00 7,2 4,7 0,8 9,3 11,7 14,2 7 4 12 7 NW 1028,6 0 0,0
21.10.2018 02:00:00 8,1 4,7 0,1 10,0 11,9 14,2 4 2 11 6 WNW 1028,5 0 0,0
21.10.2018 01:00:00 9,7 5,0 5,6 10,7 11,9 14,2 8 4 16 9 WNW 1028,4 0 0,0
21.10.2018 00:00:00 10,6 5,2 8,8 11,0 12,0 14,2 10 5 14 8 W 1028,4 0 0,0
20.10.2018 23:00:00 10,9 4,6 9,9 11,1 12,0 14,2 10 5 14 8 W 1028,5 0 0,0
20.10.2018 22:00:00 10,8 4,2 9,8 11,2 12,1 14,2 10 5 14 8 W 1028,7 0 0,0
20.10.2018 21:00:00 10,9 3,7 9,2 11,4 12,1 14,2 9 5 15 8 WSW 1028,6 0 0,0
20.10.2018 20:00:00 11,0 3,2 9,8 11,8 12,2 14,3 11 6 16 9 W 1028,5 0 0,0
20.10.2018 19:00:00 11,2 2,8 10,0 12,2 12,2 14,3 8 4 19 11 W 1028,4 0 0,0
20.10.2018 18:00:00 11,6 2,5 11,0 12,6 12,1 14,3 12 6 19 10 W 1028,4 0 0,0
20.10.2018 17:00:00 11,6 2,5 11,5 13,1 12,0 14,3 13 7 26 14 WNW 1028,6 0 0,0
20.10.2018 16:00:00 12,2 2,0 12,7 13,6 11,8 14,3 20 11 26 14 WNW 1028,6 0 0,0
20.10.2018 15:00:00 12,4 2,2 13,6 13,6 11,5 14,3 18 10 27 15 NW 1028,8 0 0,0
20.10.2018 14:00:00 12,1 1,6 12,9 14,2 11,2 14,3 17 9 28 15 NW 1028,9 35 0,0
20.10.2018 13:00:00 12,8 2,4 17,0 13,0 11,0 14,3 18 10 30 16 WNW 1029,0 58 0,0
20.10.2018 12:00:00 11,8 2,5 15,7 10,6 10,9 14,3 15 8 22 12 WNW 1029,2 60 0,0
20.10.2018 11:00:00 10,3 4,1 10,7 9,5 10,8 14,3 8 5 14 8 WSW 1028,7 27 0,0
20.10.2018 10:00:00 7,9 4,2 8,4 8,9 10,9 14,3 9 5 15 8 WNW 1028,8 0 0,0
20.10.2018 09:00:00 7,8 4,2 6,7 8,3 10,9 14,3 9 5 13 7 WNW 1028,4 0 0,0
20.10.2018 08:00:00 5,8 3,9 3,8 8,0 11,1 14,3 2 1 6 3 SW 1027,9 0 0,0
20.10.2018 07:00:00 5,3 3,7 1,9 7,8 11,2 14,3 3 1 7 4 WNW 1027,4 0 0,0
20.10.2018 06:00:00 5,2 3,4 -1,0 8,0 11,4 14,3 4 2 8 5 NNW 1027,2 0 0,0
20.10.2018 05:00:00 5,8 3,9 4,3 7,8 11,6 14,3 6 3 8 4 WNW 1027,3 0 0,0
20.10.2018 04:00:00 4,6 3,0 -2,0 7,9 11,8 14,3 4 2 6 3 NW 1026,8 0 0,0
20.10.2018 03:00:00 4,4 3,0 -2,8 8,1 12,1 14,3 4 2 6 3 NW 1027,0 0 0,0
20.10.2018 02:00:00 4,2 2,9 -3,8 8,6 12,3 14,3 3 2 5 3 NW 1026,6 0 0,0
20.10.2018 01:00:00 4,5 2,5 -3,5 9,1 12,6 14,3 3 2 4 2 WSW 1026,5 0 0,0
20.10.2018 00:00:00 5,8 3,9 -1,8 9,6 12,9 14,3 2 1 6 3 WNW 1026,3 0 0,0
19.10.2018 23:00:00 6,2 3,3 -1,9 10,2 13,2 14,3 6 3 8 4 WNW 1026,6 0 0,0
19.10.2018 22:00:00 6,9 3,4 -1,9 10,9 13,4 14,3 6 4 9 5 WNW 1026,4 0 0,0
19.10.2018 21:00:00 7,6 3,3 -0,7 11,8 13,7 14,3 7 4 11 6 NW 1026,1 0 0,0
19.10.2018 20:00:00 8,6 3,6 1,5 12,8 13,9 14,3 10 5 13 7 NW 1025,7 0 0,0
19.10.2018 19:00:00 10,0 3,9 1,5 14,2 14,0 14,3 7 4 12 6 NW 1025,2 0 0,0
19.10.2018 18:00:00 12,3 3,8 8,1 15,9 13,9 14,3 11 6 14 8 WNW 1024,8 28 0,0
19.10.2018 17:00:00 14,2 3,9 13,9 17,4 13,7 14,3 6 4 13 7 WNW 1024,6 60 0,0
19.10.2018 16:00:00 14,2 4,0 18,0 17,2 13,4 14,4 7 4 15 8 NNW 1024,8 60 0,0
19.10.2018 15:00:00 14,1 3,8 15,9 17,9 13,0 14,4 8 4 22 12 NW 1025,3 60 0,0
19.10.2018 14:00:00 13,5 4,7 19,4 16,6 12,7 14,3 12 7 21 11 NNW 1025,4 60 0,0
19.10.2018 13:00:00 12,9 4,7 17,7 14,8 12,4 14,4 9 5 20 11 NW 1025,9 60 0,0
19.10.2018 12:00:00 11,5 6,1 15,7 12,6 12,4 14,4 14 7 19 11 N 1026,4 59 0,0
19.10.2018 11:00:00 11,0 6,7 12,9 11,7 12,4 14,4 13 7 21 11 NNE 1026,3 40 0,0
19.10.2018 10:00:00 9,6 6,7 10,7 10,9 12,4 14,4 8 5 14 7 NW 1025,9 0 0,0
19.10.2018 09:00:00 8,3 6,3 7,7 10,4 12,6 14,4 9 5 13 7 NNW 1025,5 0 0,0
19.10.2018 08:00:00 7,8 5,7 5,8 10,5 12,7 14,4 12 6 15 8 NNW 1025,1 0 0,0
19.10.2018 07:00:00 7,6 5,4 3,0 10,8 12,9 14,4 8 4 16 9 NNW 1024,7 0 0,0
19.10.2018 06:00:00 8,1 5,8 5,9 11,2 13,0 14,4 10 5 15 8 N 1024,6 0 0,0
19.10.2018 05:00:00 8,6 5,7 4,9 11,8 13,1 14,4 9 5 18 10 N 1024,5 0 0,0
19.10.2018 04:00:00 9,8 6,4 8,2 12,3 13,2 14,4 14 8 25 14 N 1024,3 0 0,0
19.10.2018 03:00:00 10,6 6,8 10,1 12,5 13,3 14,4 16 8 24 13 N 1024,4 0 0,0
19.10.2018 02:00:00 11,2 6,6 10,2 12,8 13,3 14,4 14 8 25 14 N 1024,5 0 0,0
19.10.2018 01:00:00 12,1 6,3 11,6 13,0 13,4 14,4 16 9 25 14 N 1024,4 0 0,0
19.10.2018 00:00:00 12,7 8,1 12,2 13,2 13,4 14,4 18 10 26 14 N 1024,1 0 0,0
18.10.2018 23:00:00 12,8 9,0 12,4 13,4 13,4 14,4 15 8 34 19 N 1023,7 0 0,0
18.10.2018 22:00:00 13,1 9,9 12,6 13,6 13,4 14,4 22 12 33 18 N 1023,5 0 0,0
18.10.2018 21:00:00 13,4 10,9 12,9 13,8 13,5 14,4 18 10 27 15 N 1023,1 0 0,0
18.10.2018 20:00:00 13,6 12,0 12,8 14,1 13,4 14,4 18 10 26 14 N 1022,5 0 0,0
18.10.2018 19:00:00 14,2 12,0 13,9 14,4 13,4 14,4 11 6 19 10 NW 1021,9 0 0,0
18.10.2018 18:00:00 14,3 11,7 14,1 14,7 13,3 14,4 14 8 21 11 NW 1021,5 0 0,0
18.10.2018 17:00:00 14,2 11,5 14,3 15,3 13,2 14,5 15 8 22 12 NNW 1021,3 0 0,0
18.10.2018 16:00:00 13,8 10,9 14,4 16,0 12,9 14,5 18 10 26 14 NNW 1021,3 1 0,0
18.10.2018 15:00:00 14,7 10,2 16,7 16,4 12,5 14,5 16 8 24 13 NW 1021,1 46 0,0
18.10.2018 14:00:00 14,8 9,2 18,9 15,5 12,2 14,5 13 7 25 13 NW 1021,0 21 0,0
18.10.2018 13:00:00 16,7 9,2 20,7 14,5 11,9 14,5 17 9 22 12 WNW 1020,8 60 0,0
18.10.2018 12:00:00 16,1 9,0 19,4 12,2 11,8 14,5 12 6 16 9 WNW 1020,6 60 0,0
18.10.2018 11:00:00 14,8 9,5 14,7 10,6 11,7 14,5 6 3 11 6 NW 1020,5 52 0,0
18.10.2018 10:00:00 11,9 9,6 10,2 10,0 11,8 14,5 5 3 8 5 NW 1020,5 47 0,0
18.10.2018 09:00:00 8,8 8,1 7,7 9,2 11,9 14,5 3 1 4 2 S 1020,4 24 0,0
18.10.2018 08:00:00 7,5 7,0 4,1 9,2 12,1 14,5 2 1 3 1 SSW 1019,9 0 0,0
18.10.2018 07:00:00 8,3 7,7 2,8 9,4 12,3 14,5 0 0 4 2 N 1019,4 0 0,0
18.10.2018 06:00:00 7,7 7,0 2,4 9,6 12,4 14,5 0 0 4 2 N 1019,4 0 0,0
18.10.2018 05:00:00 7,7 6,7 1,7 9,9 12,6 14,5 2 1 4 2 W 1019,3 0 0,0
18.10.2018 04:00:00 9,1 8,0 3,0 10,2 12,8 14,5 3 1 4 2 SSE 1019,5 0 0,0
18.10.2018 03:00:00 8,2 7,1 2,3 10,5 13,0 14,5 0 0 4 2 N 1019,6 0 0,0
18.10.2018 02:00:00 9,0 7,9 3,0 10,8 13,2 14,5 0 0 4 2 N 1019,7 0 0,0
18.10.2018 01:00:00 9,5 8,2 5,0 11,2 13,4 14,5 0 0 3 2 N 1019,8 0 0,0
18.10.2018 00:00:00 10,2 8,3 4,0 11,6 13,6 14,5 2 1 8 4 ESE 1019,8 0 0,0
17.10.2018 23:00:00 11,1 8,9 4,2 12,1 13,8 14,5 3 2 4 2 E 1019,8 0 0,0
17.10.2018 22:00:00 10,9 8,0 4,5 12,7 13,9 14,5 3 2 6 4 ESE 1019,8 0 0,0
17.10.2018 21:00:00 12,0 9,1 6,6 13,4 14,1 14,5 0 0 6 3 N 1019,5 0 0,0
17.10.2018 20:00:00 12,6 8,2 6,1 14,3 14,2 14,5 2 1 6 3 SSE 1019,4 0 0,0
17.10.2018 19:00:00 15,3 9,2 8,8 15,4 14,2 14,5 3 2 6 4 ESE 1019,1 0 0,0
17.10.2018 18:00:00 18,4 9,5 12,4 16,8 14,0 14,5 5 3 12 6 ESE 1018,8 21 0,0
17.10.2018 17:00:00 19,9 9,3 19,7 17,9 13,7 14,5 9 5 14 8 ESE 1018,6 60 0,0
17.10.2018 16:00:00 21,0 8,9 24,0 17,8 13,3 14,5 6 3 11 6 ESE 1018,6 60 0,0
17.10.2018 15:00:00 20,9 7,7 21,4 18,1 12,8 14,5 5 3 14 8 SSW 1018,8 60 0,0
17.10.2018 14:00:00 20,3 8,5 24,7 16,8 12,4 14,5 7 4 11 6 S 1019,1 60 0,0
17.10.2018 13:00:00 19,0 8,5 23,0 14,8 12,1 14,5 6 4 13 7 S 1019,5 60 0,0
17.10.2018 12:00:00 18,3 8,5 21,2 12,2 12,0 14,5 4 2 11 6 SE 1019,8 60 0,0
17.10.2018 11:00:00 15,7 8,4 14,7 10,6 12,0 14,5 5 3 7 4 S 1020,0 60 0,0
17.10.2018 10:00:00 11,5 8,5 9,7 10,1 12,1 14,5 2 1 6 4 NNE 1020,1 60 0,0
17.10.2018 09:00:00 9,3 7,1 7,9 9,4 12,2 14,6 6 3 10 5 SSW 1020,1 36 0,0
17.10.2018 08:00:00 7,6 6,4 3,4 9,4 12,4 14,5 5 3 7 4 ESE 1019,8 0 0,0
17.10.2018 07:00:00 8,7 7,0 2,7 9,7 12,6 14,6 4 2 9 5 ESE 1019,6 0 0,0

tt = Température de l'air
td = dewpoint
tt 5cm = Température de l'air 5cm
tt -5cm = Température de l'air -5cm
tt -20cm = Température de l'air -20cm
tt -100cm = Température de l'air -100cm
ff = Vitesse du vent
fx = gusts
dd = Direction du vent
ppp = reduced air pressure
sd = Ensoleillement
rr = Quantités de précipitations

stations d'obs. à proximité